sensor_id;sensor_type;location;lat;lon;timestamp;P1;durP1;ratioP1;P2;durP2;ratioP2
15567;SDS011;7885;42.596;23.044;2022-08-03T00:02:04;4.23;;;2.83;;
15567;SDS011;7885;42.596;23.044;2022-08-03T00:04:31;6.27;;;2.90;;
15567;SDS011;7885;42.596;23.044;2022-08-03T00:06:57;3.63;;;2.60;;
15567;SDS011;7885;42.596;23.044;2022-08-03T00:09:24;2.97;;;2.07;;
15567;SDS011;7885;42.596;23.044;2022-08-03T00:11:51;4.00;;;2.03;;
15567;SDS011;7885;42.596;23.044;2022-08-03T00:14:18;4.20;;;2.30;;
15567;SDS011;7885;42.596;23.044;2022-08-03T00:16:46;3.27;;;2.03;;
15567;SDS011;7885;42.596;23.044;2022-08-03T00:19:12;4.93;;;2.07;;
15567;SDS011;7885;42.596;23.044;2022-08-03T00:21:39;4.77;;;1.90;;
15567;SDS011;7885;42.596;23.044;2022-08-03T00:24:06;3.80;;;2.50;;
15567;SDS011;7885;42.596;23.044;2022-08-03T00:26:33;5.30;;;2.27;;
15567;SDS011;7885;42.596;23.044;2022-08-03T00:28:59;7.90;;;2.40;;
15567;SDS011;7885;42.596;23.044;2022-08-03T00:31:26;3.30;;;2.50;;
15567;SDS011;7885;42.596;23.044;2022-08-03T00:33:54;7.07;;;2.30;;
15567;SDS011;7885;42.596;23.044;2022-08-03T00:36:21;6.23;;;2.50;;
15567;SDS011;7885;42.596;23.044;2022-08-03T00:38:48;6.07;;;2.63;;
15567;SDS011;7885;42.596;23.044;2022-08-03T00:41:14;3.53;;;2.50;;
15567;SDS011;7885;42.596;23.044;2022-08-03T00:43:41;4.60;;;2.60;;
15567;SDS011;7885;42.596;23.044;2022-08-03T00:46:09;8.57;;;2.90;;
15567;SDS011;7885;42.596;23.044;2022-08-03T00:48:35;4.57;;;2.60;;
15567;SDS011;7885;42.596;23.044;2022-08-03T00:51:04;3.37;;;2.47;;
15567;SDS011;7885;42.596;23.044;2022-08-03T00:53:31;5.73;;;2.93;;
15567;SDS011;7885;42.596;23.044;2022-08-03T00:56:00;7.60;;;2.90;;
15567;SDS011;7885;42.596;23.044;2022-08-03T00:58:27;8.13;;;2.77;;
15567;SDS011;7885;42.596;23.044;2022-08-03T01:00:54;6.90;;;2.47;;
15567;SDS011;7885;42.596;23.044;2022-08-03T01:06:45;7.07;;;2.60;;
15567;SDS011;7885;42.596;23.044;2022-08-03T01:09:18;6.93;;;2.67;;
15567;SDS011;7885;42.596;23.044;2022-08-03T01:11:49;5.30;;;2.40;;
15567;SDS011;7885;42.596;23.044;2022-08-03T01:14:23;4.20;;;2.73;;
15567;SDS011;7885;42.596;23.044;2022-08-03T01:16:58;7.13;;;2.03;;
15567;SDS011;7885;42.596;23.044;2022-08-03T01:19:34;7.37;;;2.77;;
15567;SDS011;7885;42.596;23.044;2022-08-03T01:22:13;6.40;;;2.30;;
15567;SDS011;7885;42.596;23.044;2022-08-03T01:24:57;5.87;;;2.67;;
15567;SDS011;7885;42.596;23.044;2022-08-03T01:27:36;7.40;;;2.90;;
15567;SDS011;7885;42.596;23.044;2022-08-03T01:30:13;2.70;;;2.17;;
15567;SDS011;7885;42.596;23.044;2022-08-03T01:32:41;3.47;;;2.50;;
15567;SDS011;7885;42.596;23.044;2022-08-03T01:35:15;4.40;;;2.43;;
15567;SDS011;7885;42.596;23.044;2022-08-03T01:37:47;5.73;;;2.97;;
15567;SDS011;7885;42.596;23.044;2022-08-03T01:40:17;5.83;;;2.50;;
15567;SDS011;7885;42.596;23.044;2022-08-03T01:42:46;5.80;;;2.50;;
15567;SDS011;7885;42.596;23.044;2022-08-03T01:45:16;3.90;;;2.13;;
15567;SDS011;7885;42.596;23.044;2022-08-03T01:47:44;2.83;;;2.30;;
15567;SDS011;7885;42.596;23.044;2022-08-03T01:50:12;3.70;;;2.37;;
15567;SDS011;7885;42.596;23.044;2022-08-03T01:52:41;6.27;;;2.50;;
15567;SDS011;7885;42.596;23.044;2022-08-03T01:55:09;4.87;;;2.70;;
15567;SDS011;7885;42.596;23.044;2022-08-03T01:57:38;6.33;;;2.90;;
15567;SDS011;7885;42.596;23.044;2022-08-03T02:00:08;5.50;;;2.77;;
15567;SDS011;7885;42.596;23.044;2022-08-03T02:02:37;7.07;;;2.47;;
15567;SDS011;7885;42.596;23.044;2022-08-03T02:05:06;5.07;;;2.50;;
15567;SDS011;7885;42.596;23.044;2022-08-03T02:07:35;4.27;;;2.33;;
15567;SDS011;7885;42.596;23.044;2022-08-03T02:10:03;3.80;;;2.17;;
15567;SDS011;7885;42.596;23.044;2022-08-03T02:19:17;2.97;;;2.40;;
15567;SDS011;7885;42.596;23.044;2022-08-03T02:21:45;2.90;;;2.30;;
15567;SDS011;7885;42.596;23.044;2022-08-03T02:24:12;4.77;;;3.10;;
15567;SDS011;7885;42.596;23.044;2022-08-03T02:26:39;3.00;;;2.50;;
15567;SDS011;7885;42.596;23.044;2022-08-03T02:29:09;7.07;;;2.50;;
15567;SDS011;7885;42.596;23.044;2022-08-03T02:31:39;2.30;;;2.07;;
15567;SDS011;7885;42.596;23.044;2022-08-03T02:34:10;3.70;;;2.17;;
15567;SDS011;7885;42.596;23.044;2022-08-03T02:36:41;4.57;;;2.37;;
15567;SDS011;7885;42.596;23.044;2022-08-03T02:39:12;6.30;;;2.87;;
15567;SDS011;7885;42.596;23.044;2022-08-03T02:41:42;3.43;;;2.80;;
15567;SDS011;7885;42.596;23.044;2022-08-03T02:44:11;4.87;;;3.33;;
15567;SDS011;7885;42.596;23.044;2022-08-03T02:46:40;8.30;;;4.57;;
15567;SDS011;7885;42.596;23.044;2022-08-03T02:49:11;8.73;;;4.10;;
15567;SDS011;7885;42.596;23.044;2022-08-03T02:51:44;12.97;;;4.80;;
15567;SDS011;7885;42.596;23.044;2022-08-03T02:54:13;5.10;;;3.23;;
15567;SDS011;7885;42.596;23.044;2022-08-03T02:56:43;4.90;;;3.33;;
15567;SDS011;7885;42.596;23.044;2022-08-03T02:59:12;2.63;;;2.40;;
15567;SDS011;7885;42.596;23.044;2022-08-03T03:01:40;6.00;;;3.50;;
15567;SDS011;7885;42.596;23.044;2022-08-03T03:04:07;4.57;;;3.60;;
15567;SDS011;7885;42.596;23.044;2022-08-03T03:06:37;5.67;;;3.50;;
15567;SDS011;7885;42.596;23.044;2022-08-03T03:09:06;4.70;;;2.90;;
15567;SDS011;7885;42.596;23.044;2022-08-03T03:11:34;5.70;;;3.47;;
15567;SDS011;7885;42.596;23.044;2022-08-03T03:14:03;6.43;;;3.20;;
15567;SDS011;7885;42.596;23.044;2022-08-03T03:16:30;5.60;;;3.07;;
15567;SDS011;7885;42.596;23.044;2022-08-03T03:18:58;6.33;;;3.57;;
15567;SDS011;7885;42.596;23.044;2022-08-03T03:21:27;5.80;;;3.40;;
15567;SDS011;7885;42.596;23.044;2022-08-03T03:23:56;4.23;;;3.10;;
15567;SDS011;7885;42.596;23.044;2022-08-03T03:26:25;4.30;;;3.00;;
15567;SDS011;7885;42.596;23.044;2022-08-03T03:28:53;7.27;;;3.30;;
15567;SDS011;7885;42.596;23.044;2022-08-03T03:31:20;6.63;;;3.00;;
15567;SDS011;7885;42.596;23.044;2022-08-03T03:33:47;6.17;;;3.10;;
15567;SDS011;7885;42.596;23.044;2022-08-03T03:36:14;3.13;;;2.83;;
15567;SDS011;7885;42.596;23.044;2022-08-03T03:38:42;5.10;;;2.80;;
15567;SDS011;7885;42.596;23.044;2022-08-03T03:41:09;6.17;;;2.90;;
15567;SDS011;7885;42.596;23.044;2022-08-03T03:43:37;4.47;;;2.93;;
15567;SDS011;7885;42.596;23.044;2022-08-03T03:46:04;4.23;;;3.40;;
15567;SDS011;7885;42.596;23.044;2022-08-03T03:48:31;4.43;;;3.87;;
15567;SDS011;7885;42.596;23.044;2022-08-03T03:50:58;3.63;;;3.33;;
15567;SDS011;7885;42.596;23.044;2022-08-03T03:53:26;5.83;;;3.60;;
15567;SDS011;7885;42.596;23.044;2022-08-03T03:55:53;3.97;;;3.43;;
15567;SDS011;7885;42.596;23.044;2022-08-03T03:58:19;17.17;;;3.60;;
15567;SDS011;7885;42.596;23.044;2022-08-03T04:00:48;14.37;;;3.23;;
15567;SDS011;7885;42.596;23.044;2022-08-03T04:06:36;7.27;;;3.50;;
15567;SDS011;7885;42.596;23.044;2022-08-03T04:09:21;7.70;;;3.30;;
15567;SDS011;7885;42.596;23.044;2022-08-03T04:12:05;5.03;;;3.40;;
15567;SDS011;7885;42.596;23.044;2022-08-03T04:14:32;4.70;;;3.30;;
15567;SDS011;7885;42.596;23.044;2022-08-03T04:17:03;7.33;;;3.50;;
15567;SDS011;7885;42.596;23.044;2022-08-03T04:19:33;4.47;;;3.70;;
15567;SDS011;7885;42.596;23.044;2022-08-03T04:22:06;5.43;;;3.77;;
15567;SDS011;7885;42.596;23.044;2022-08-03T04:24:37;7.27;;;4.10;;
15567;SDS011;7885;42.596;23.044;2022-08-03T04:27:08;8.00;;;3.90;;
15567;SDS011;7885;42.596;23.044;2022-08-03T04:29:38;5.03;;;3.60;;
15567;SDS011;7885;42.596;23.044;2022-08-03T04:32:08;7.53;;;3.90;;
15567;SDS011;7885;42.596;23.044;2022-08-03T04:37:58;8.30;;;4.10;;
15567;SDS011;7885;42.596;23.044;2022-08-03T04:40:29;9.53;;;4.63;;
15567;SDS011;7885;42.596;23.044;2022-08-03T04:42:58;8.40;;;4.23;;
15567;SDS011;7885;42.596;23.044;2022-08-03T04:45:26;7.50;;;4.17;;
15567;SDS011;7885;42.596;23.044;2022-08-03T04:47:54;8.53;;;3.80;;
15567;SDS011;7885;42.596;23.044;2022-08-03T04:50:22;9.37;;;4.00;;
15567;SDS011;7885;42.596;23.044;2022-08-03T04:52:50;10.07;;;3.97;;
15567;SDS011;7885;42.596;23.044;2022-08-03T04:55:24;7.20;;;3.70;;
15567;SDS011;7885;42.596;23.044;2022-08-03T04:57:51;8.07;;;4.00;;
15567;SDS011;7885;42.596;23.044;2022-08-03T05:00:18;10.47;;;4.17;;
15567;SDS011;7885;42.596;23.044;2022-08-03T05:02:45;7.80;;;3.73;;
15567;SDS011;7885;42.596;23.044;2022-08-03T05:05:14;9.73;;;4.20;;
15567;SDS011;7885;42.596;23.044;2022-08-03T05:07:41;12.37;;;4.10;;
15567;SDS011;7885;42.596;23.044;2022-08-03T05:16:51;16.63;;;4.83;;
15567;SDS011;7885;42.596;23.044;2022-08-03T05:19:18;12.67;;;4.23;;
15567;SDS011;7885;42.596;23.044;2022-08-03T05:21:46;8.57;;;4.00;;
15567;SDS011;7885;42.596;23.044;2022-08-03T05:24:13;11.57;;;3.83;;
15567;SDS011;7885;42.596;23.044;2022-08-03T05:26:39;9.73;;;4.23;;
15567;SDS011;7885;42.596;23.044;2022-08-03T05:29:06;13.77;;;4.40;;
15567;SDS011;7885;42.596;23.044;2022-08-03T05:31:33;10.90;;;3.90;;
15567;SDS011;7885;42.596;23.044;2022-08-03T05:34:00;12.83;;;3.70;;
15567;SDS011;7885;42.596;23.044;2022-08-03T05:36:27;9.43;;;3.60;;
15567;SDS011;7885;42.596;23.044;2022-08-03T05:38:55;12.50;;;4.10;;
15567;SDS011;7885;42.596;23.044;2022-08-03T05:41:22;9.57;;;3.97;;
15567;SDS011;7885;42.596;23.044;2022-08-03T05:43:49;9.00;;;3.80;;
15567;SDS011;7885;42.596;23.044;2022-08-03T05:46:16;8.97;;;3.97;;
15567;SDS011;7885;42.596;23.044;2022-08-03T05:48:43;7.77;;;3.50;;
15567;SDS011;7885;42.596;23.044;2022-08-03T05:51:09;7.33;;;3.87;;
15567;SDS011;7885;42.596;23.044;2022-08-03T05:53:36;14.57;;;4.23;;
15567;SDS011;7885;42.596;23.044;2022-08-03T05:56:05;9.40;;;3.70;;
15567;SDS011;7885;42.596;23.044;2022-08-03T05:58:32;9.70;;;3.67;;
15567;SDS011;7885;42.596;23.044;2022-08-03T06:00:58;7.27;;;3.70;;
15567;SDS011;7885;42.596;23.044;2022-08-03T06:03:25;13.13;;;3.70;;
15567;SDS011;7885;42.596;23.044;2022-08-03T06:05:52;10.67;;;4.30;;
15567;SDS011;7885;42.596;23.044;2022-08-03T06:08:20;9.40;;;4.00;;
15567;SDS011;7885;42.596;23.044;2022-08-03T06:10:47;8.73;;;3.67;;
15567;SDS011;7885;42.596;23.044;2022-08-03T06:13:15;7.10;;;3.57;;
15567;SDS011;7885;42.596;23.044;2022-08-03T06:15:42;10.33;;;3.53;;
15567;SDS011;7885;42.596;23.044;2022-08-03T06:18:09;11.77;;;3.90;;
15567;SDS011;7885;42.596;23.044;2022-08-03T06:20:35;12.13;;;3.63;;
15567;SDS011;7885;42.596;23.044;2022-08-03T06:23:02;5.80;;;3.27;;
15567;SDS011;7885;42.596;23.044;2022-08-03T06:25:29;4.57;;;3.03;;
15567;SDS011;7885;42.596;23.044;2022-08-03T06:27:55;21.10;;;4.30;;
15567;SDS011;7885;42.596;23.044;2022-08-03T06:30:24;6.50;;;2.60;;
15567;SDS011;7885;42.596;23.044;2022-08-03T06:32:51;6.63;;;3.10;;
15567;SDS011;7885;42.596;23.044;2022-08-03T06:35:19;11.73;;;3.27;;
15567;SDS011;7885;42.596;23.044;2022-08-03T06:37:46;5.43;;;3.23;;
15567;SDS011;7885;42.596;23.044;2022-08-03T06:40:15;10.93;;;3.47;;
15567;SDS011;7885;42.596;23.044;2022-08-03T06:42:43;8.87;;;3.20;;
15567;SDS011;7885;42.596;23.044;2022-08-03T06:45:10;6.83;;;3.07;;
15567;SDS011;7885;42.596;23.044;2022-08-03T06:47:39;5.97;;;2.80;;
15567;SDS011;7885;42.596;23.044;2022-08-03T06:50:06;8.83;;;3.23;;
15567;SDS011;7885;42.596;23.044;2022-08-03T06:52:34;7.87;;;3.00;;
15567;SDS011;7885;42.596;23.044;2022-08-03T06:55:01;9.77;;;3.50;;
15567;SDS011;7885;42.596;23.044;2022-08-03T06:57:29;4.43;;;3.00;;
15567;SDS011;7885;42.596;23.044;2022-08-03T06:59:55;6.87;;;3.10;;
15567;SDS011;7885;42.596;23.044;2022-08-03T07:02:25;8.03;;;2.77;;
15567;SDS011;7885;42.596;23.044;2022-08-03T07:04:54;3.73;;;2.80;;
15567;SDS011;7885;42.596;23.044;2022-08-03T07:07:21;5.80;;;2.70;;
15567;SDS011;7885;42.596;23.044;2022-08-03T07:09:48;4.93;;;3.00;;
15567;SDS011;7885;42.596;23.044;2022-08-03T07:12:15;5.43;;;2.77;;
15567;SDS011;7885;42.596;23.044;2022-08-03T07:14:41;6.37;;;3.07;;
15567;SDS011;7885;42.596;23.044;2022-08-03T07:17:08;6.07;;;2.73;;
15567;SDS011;7885;42.596;23.044;2022-08-03T07:19:35;5.57;;;3.00;;
15567;SDS011;7885;42.596;23.044;2022-08-03T07:22:03;7.77;;;2.67;;
15567;SDS011;7885;42.596;23.044;2022-08-03T07:24:30;6.70;;;3.00;;
15567;SDS011;7885;42.596;23.044;2022-08-03T07:26:57;6.73;;;2.60;;
15567;SDS011;7885;42.596;23.044;2022-08-03T07:29:23;4.87;;;2.37;;
15567;SDS011;7885;42.596;23.044;2022-08-03T07:31:50;3.73;;;2.13;;
15567;SDS011;7885;42.596;23.044;2022-08-03T07:34:17;10.10;;;2.40;;
15567;SDS011;7885;42.596;23.044;2022-08-03T07:36:44;4.87;;;2.40;;
15567;SDS011;7885;42.596;23.044;2022-08-03T07:39:12;5.97;;;2.50;;
15567;SDS011;7885;42.596;23.044;2022-08-03T07:41:39;5.30;;;2.30;;
15567;SDS011;7885;42.596;23.044;2022-08-03T07:44:05;4.07;;;2.23;;
15567;SDS011;7885;42.596;23.044;2022-08-03T07:46:32;2.53;;;2.20;;
15567;SDS011;7885;42.596;23.044;2022-08-03T07:48:59;4.63;;;2.10;;
15567;SDS011;7885;42.596;23.044;2022-08-03T07:51:26;2.47;;;2.27;;
15567;SDS011;7885;42.596;23.044;2022-08-03T07:57:15;2.83;;;1.70;;
15567;SDS011;7885;42.596;23.044;2022-08-03T07:59:42;2.07;;;1.83;;
15567;SDS011;7885;42.596;23.044;2022-08-03T08:02:11;1.87;;;1.77;;
15567;SDS011;7885;42.596;23.044;2022-08-03T08:04:38;4.93;;;2.13;;
15567;SDS011;7885;42.596;23.044;2022-08-03T08:07:05;1.70;;;1.60;;
15567;SDS011;7885;42.596;23.044;2022-08-03T08:09:31;1.80;;;1.70;;
15567;SDS011;7885;42.596;23.044;2022-08-03T08:11:59;2.10;;;1.90;;
15567;SDS011;7885;42.596;23.044;2022-08-03T08:14:27;1.80;;;1.67;;
15567;SDS011;7885;42.596;23.044;2022-08-03T08:16:53;4.03;;;2.00;;
15567;SDS011;7885;42.596;23.044;2022-08-03T08:19:20;3.03;;;1.90;;
15567;SDS011;7885;42.596;23.044;2022-08-03T08:21:47;5.23;;;1.70;;
15567;SDS011;7885;42.596;23.044;2022-08-03T08:24:14;2.00;;;1.80;;
15567;SDS011;7885;42.596;23.044;2022-08-03T08:26:40;2.05;;;1.85;;
15567;SDS011;7885;42.596;23.044;2022-08-03T08:29:07;2.72;;;1.70;;
15567;SDS011;7885;42.596;23.044;2022-08-03T08:31:35;1.70;;;1.60;;
15567;SDS011;7885;42.596;23.044;2022-08-03T08:34:02;2.33;;;2.13;;
15567;SDS011;7885;42.596;23.044;2022-08-03T08:36:30;3.55;;;2.75;;
15567;SDS011;7885;42.596;23.044;2022-08-03T08:38:57;2.80;;;2.50;;
15567;SDS011;7885;42.596;23.044;2022-08-03T08:41:25;2.97;;;1.95;;
15567;SDS011;7885;42.596;23.044;2022-08-03T08:43:52;2.45;;;1.88;;
15567;SDS011;7885;42.596;23.044;2022-08-03T08:49:42;3.17;;;1.60;;
15567;SDS011;7885;42.596;23.044;2022-08-03T08:52:10;1.80;;;1.70;;
15567;SDS011;7885;42.596;23.044;2022-08-03T08:54:38;1.58;;;1.48;;
15567;SDS011;7885;42.596;23.044;2022-08-03T08:57:07;2.00;;;1.70;;
15567;SDS011;7885;42.596;23.044;2022-08-03T08:59:35;2.40;;;1.70;;
15567;SDS011;7885;42.596;23.044;2022-08-03T09:02:02;2.38;;;1.90;;
15567;SDS011;7885;42.596;23.044;2022-08-03T09:04:29;2.13;;;1.70;;
15567;SDS011;7885;42.596;23.044;2022-08-03T09:13:41;2.00;;;1.50;;
15567;SDS011;7885;42.596;23.044;2022-08-03T09:16:09;4.57;;;1.88;;
15567;SDS011;7885;42.596;23.044;2022-08-03T09:18:37;4.03;;;1.80;;
15567;SDS011;7885;42.596;23.044;2022-08-03T09:21:17;1.63;;;1.52;;
15567;SDS011;7885;42.596;23.044;2022-08-03T09:23:46;5.13;;;1.70;;
15567;SDS011;7885;42.596;23.044;2022-08-03T09:26:20;2.95;;;1.65;;
15567;SDS011;7885;42.596;23.044;2022-08-03T09:28:54;1.70;;;1.60;;
15567;SDS011;7885;42.596;23.044;2022-08-03T09:31:29;2.05;;;1.80;;
15567;SDS011;7885;42.596;23.044;2022-08-03T09:33:56;2.97;;;1.48;;
15567;SDS011;7885;42.596;23.044;2022-08-03T09:36:35;1.60;;;1.50;;
15567;SDS011;7885;42.596;23.044;2022-08-03T09:39:03;2.95;;;1.60;;
15567;SDS011;7885;42.596;23.044;2022-08-03T09:41:32;3.25;;;1.90;;
15567;SDS011;7885;42.596;23.044;2022-08-03T09:44:00;5.55;;;1.73;;
15567;SDS011;7885;42.596;23.044;2022-08-03T09:46:27;1.90;;;1.80;;
15567;SDS011;7885;42.596;23.044;2022-08-03T09:55:17;4.30;;;2.30;;
15567;SDS011;7885;42.596;23.044;2022-08-03T09:57:47;2.33;;;2.10;;
15567;SDS011;7885;42.596;23.044;2022-08-03T10:00:16;4.05;;;2.10;;
15567;SDS011;7885;42.596;23.044;2022-08-03T10:02:43;2.40;;;2.20;;
15567;SDS011;7885;42.596;23.044;2022-08-03T10:05:11;2.95;;;2.67;;
15567;SDS011;7885;42.596;23.044;2022-08-03T10:07:42;3.05;;;2.83;;
15567;SDS011;7885;42.596;23.044;2022-08-03T10:10:10;3.10;;;2.47;;
15567;SDS011;7885;42.596;23.044;2022-08-03T10:12:37;3.00;;;2.78;;
15567;SDS011;7885;42.596;23.044;2022-08-03T10:15:06;4.47;;;2.20;;
15567;SDS011;7885;42.596;23.044;2022-08-03T10:17:35;4.07;;;3.30;;
15567;SDS011;7885;42.596;23.044;2022-08-03T10:20:03;7.03;;;3.72;;
15567;SDS011;7885;42.596;23.044;2022-08-03T10:22:32;3.60;;;3.30;;
15567;SDS011;7885;42.596;23.044;2022-08-03T10:25:02;5.88;;;3.47;;
15567;SDS011;7885;42.596;23.044;2022-08-03T10:27:33;6.30;;;3.90;;
15567;SDS011;7885;42.596;23.044;2022-08-03T10:33:26;4.22;;;3.40;;
15567;SDS011;7885;42.596;23.044;2022-08-03T10:35:55;5.85;;;3.45;;
15567;SDS011;7885;42.596;23.044;2022-08-03T10:38:25;4.20;;;3.80;;
15567;SDS011;7885;42.596;23.044;2022-08-03T10:40:57;4.97;;;3.83;;
15567;SDS011;7885;42.596;23.044;2022-08-03T10:43:26;3.83;;;3.47;;
15567;SDS011;7885;42.596;23.044;2022-08-03T10:46:02;4.05;;;3.75;;
15567;SDS011;7885;42.596;23.044;2022-08-03T10:48:34;4.35;;;3.97;;
15567;SDS011;7885;42.596;23.044;2022-08-03T10:51:01;5.05;;;4.55;;
15567;SDS011;7885;42.596;23.044;2022-08-03T10:53:35;5.72;;;3.85;;
15567;SDS011;7885;42.596;23.044;2022-08-03T10:56:04;8.88;;;4.50;;
15567;SDS011;7885;42.596;23.044;2022-08-03T10:58:49;12.38;;;5.47;;
15567;SDS011;7885;42.596;23.044;2022-08-03T11:01:17;5.38;;;4.88;;
15567;SDS011;7885;42.596;23.044;2022-08-03T11:10:29;4.07;;;3.67;;
15567;SDS011;7885;42.596;23.044;2022-08-03T11:13:03;3.90;;;3.60;;
15567;SDS011;7885;42.596;23.044;2022-08-03T11:15:32;4.40;;;3.28;;
15567;SDS011;7885;42.596;23.044;2022-08-03T11:18:07;3.90;;;3.50;;
15567;SDS011;7885;42.596;23.044;2022-08-03T11:20:48;3.38;;;3.08;;
15567;SDS011;7885;42.596;23.044;2022-08-03T11:23:17;3.33;;;3.03;;
15567;SDS011;7885;42.596;23.044;2022-08-03T11:28:39;2.80;;;2.60;;
15567;SDS011;7885;42.596;23.044;2022-08-03T11:47:07;8.98;;;2.10;;
15567;SDS011;7885;42.596;23.044;2022-08-03T11:49:41;5.22;;;2.08;;
15567;SDS011;7885;42.596;23.044;2022-08-03T11:52:09;3.90;;;2.03;;
15567;SDS011;7885;42.596;23.044;2022-08-03T11:57:58;2.38;;;2.10;;
15567;SDS011;7885;42.596;23.044;2022-08-03T12:00:27;8.07;;;2.20;;
15567;SDS011;7885;42.596;23.044;2022-08-03T12:02:59;4.00;;;1.90;;
15567;SDS011;7885;42.596;23.044;2022-08-03T12:05:41;3.67;;;1.90;;
15567;SDS011;7885;42.596;23.044;2022-08-03T12:08:10;3.33;;;2.00;;
15567;SDS011;7885;42.596;23.044;2022-08-03T12:10:39;9.65;;;2.58;;
15567;SDS011;7885;42.596;23.044;2022-08-03T12:13:10;3.47;;;1.80;;
15567;SDS011;7885;42.596;23.044;2022-08-03T12:15:38;5.28;;;2.40;;
15567;SDS011;7885;42.596;23.044;2022-08-03T12:18:13;3.28;;;2.08;;
15567;SDS011;7885;42.596;23.044;2022-08-03T12:20:42;7.35;;;2.60;;
15567;SDS011;7885;42.596;23.044;2022-08-03T12:23:09;7.85;;;2.40;;
15567;SDS011;7885;42.596;23.044;2022-08-03T12:25:38;7.47;;;2.45;;
15567;SDS011;7885;42.596;23.044;2022-08-03T12:28:06;2.65;;;2.13;;
15567;SDS011;7885;42.596;23.044;2022-08-03T12:30:42;5.03;;;1.90;;
15567;SDS011;7885;42.596;23.044;2022-08-03T12:33:12;7.13;;;1.92;;
15567;SDS011;7885;42.596;23.044;2022-08-03T12:35:40;4.50;;;1.85;;
15567;SDS011;7885;42.596;23.044;2022-08-03T12:38:07;5.28;;;1.90;;
15567;SDS011;7885;42.596;23.044;2022-08-03T12:40:33;2.78;;;1.60;;
15567;SDS011;7885;42.596;23.044;2022-08-03T12:43:00;5.55;;;2.00;;
15567;SDS011;7885;42.596;23.044;2022-08-03T12:45:36;5.13;;;1.73;;
15567;SDS011;7885;42.596;23.044;2022-08-03T12:48:07;2.15;;;1.50;;
15567;SDS011;7885;42.596;23.044;2022-08-03T12:50:36;3.28;;;1.58;;
15567;SDS011;7885;42.596;23.044;2022-08-03T12:53:04;2.00;;;1.48;;
15567;SDS011;7885;42.596;23.044;2022-08-03T12:55:31;2.33;;;1.67;;
15567;SDS011;7885;42.596;23.044;2022-08-03T12:57:59;2.42;;;1.52;;
15567;SDS011;7885;42.596;23.044;2022-08-03T13:00:26;3.88;;;1.63;;
15567;SDS011;7885;42.596;23.044;2022-08-03T13:02:57;4.45;;;1.50;;
15567;SDS011;7885;42.596;23.044;2022-08-03T13:05:27;1.83;;;1.67;;
15567;SDS011;7885;42.596;23.044;2022-08-03T13:07:56;2.97;;;1.50;;
15567;SDS011;7885;42.596;23.044;2022-08-03T13:10:27;3.75;;;1.77;;
15567;SDS011;7885;42.596;23.044;2022-08-03T13:12:55;4.57;;;1.92;;
15567;SDS011;7885;42.596;23.044;2022-08-03T13:15:24;3.15;;;1.80;;
15567;SDS011;7885;42.596;23.044;2022-08-03T13:17:52;5.85;;;2.00;;
15567;SDS011;7885;42.596;23.044;2022-08-03T13:20:20;5.35;;;2.17;;
15567;SDS011;7885;42.596;23.044;2022-08-03T13:22:48;4.50;;;1.95;;
15567;SDS011;7885;42.596;23.044;2022-08-03T13:25:20;3.58;;;2.30;;
15567;SDS011;7885;42.596;23.044;2022-08-03T13:27:47;7.82;;;2.30;;
15567;SDS011;7885;42.596;23.044;2022-08-03T13:30:14;5.35;;;2.00;;
15567;SDS011;7885;42.596;23.044;2022-08-03T13:32:41;5.65;;;2.03;;
15567;SDS011;7885;42.596;23.044;2022-08-03T13:35:08;8.13;;;2.42;;
15567;SDS011;7885;42.596;23.044;2022-08-03T13:37:35;8.40;;;2.72;;
15567;SDS011;7885;42.596;23.044;2022-08-03T13:40:05;3.47;;;2.20;;
15567;SDS011;7885;42.596;23.044;2022-08-03T13:42:33;5.75;;;2.40;;
15567;SDS011;7885;42.596;23.044;2022-08-03T13:45:01;3.50;;;1.80;;
15567;SDS011;7885;42.596;23.044;2022-08-03T13:47:30;3.05;;;2.17;;
15567;SDS011;7885;42.596;23.044;2022-08-03T13:49:57;3.60;;;1.90;;
15567;SDS011;7885;42.596;23.044;2022-08-03T13:52:24;2.63;;;1.98;;
15567;SDS011;7885;42.596;23.044;2022-08-03T13:54:50;2.80;;;1.98;;
15567;SDS011;7885;42.596;23.044;2022-08-03T13:57:18;2.03;;;1.88;;
15567;SDS011;7885;42.596;23.044;2022-08-03T13:59:45;2.28;;;2.08;;
15567;SDS011;7885;42.596;23.044;2022-08-03T14:02:13;5.35;;;2.13;;
15567;SDS011;7885;42.596;23.044;2022-08-03T14:08:02;3.13;;;1.83;;
15567;SDS011;7885;42.596;23.044;2022-08-03T14:10:30;2.53;;;1.70;;
15567;SDS011;7885;42.596;23.044;2022-08-03T14:12:59;1.85;;;1.75;;
15567;SDS011;7885;42.596;23.044;2022-08-03T14:15:26;3.33;;;1.90;;
15567;SDS011;7885;42.596;23.044;2022-08-03T14:17:53;2.75;;;2.10;;
15567;SDS011;7885;42.596;23.044;2022-08-03T14:20:20;3.00;;;2.13;;
15567;SDS011;7885;42.596;23.044;2022-08-03T14:22:47;3.10;;;2.20;;
15567;SDS011;7885;42.596;23.044;2022-08-03T14:25:14;4.35;;;2.05;;
15567;SDS011;7885;42.596;23.044;2022-08-03T14:27:40;3.60;;;1.98;;
15567;SDS011;7885;42.596;23.044;2022-08-03T14:30:09;3.95;;;2.33;;
15567;SDS011;7885;42.596;23.044;2022-08-03T14:32:37;4.03;;;2.20;;
15567;SDS011;7885;42.596;23.044;2022-08-03T14:35:04;2.92;;;1.90;;
15567;SDS011;7885;42.596;23.044;2022-08-03T14:37:31;2.63;;;2.08;;
15567;SDS011;7885;42.596;23.044;2022-08-03T14:39:58;4.85;;;2.10;;
15567;SDS011;7885;42.596;23.044;2022-08-03T14:49:10;2.55;;;1.80;;
15567;SDS011;7885;42.596;23.044;2022-08-03T14:51:36;2.63;;;1.90;;
15567;SDS011;7885;42.596;23.044;2022-08-03T14:54:03;3.55;;;2.00;;
15567;SDS011;7885;42.596;23.044;2022-08-03T14:56:30;15.40;;;2.83;;
15567;SDS011;7885;42.596;23.044;2022-08-03T14:58:56;3.58;;;2.00;;
15567;SDS011;7885;42.596;23.044;2022-08-03T15:01:23;2.75;;;2.10;;
15567;SDS011;7885;42.596;23.044;2022-08-03T15:03:50;1.83;;;1.73;;
15567;SDS011;7885;42.596;23.044;2022-08-03T15:06:18;3.63;;;2.25;;
15567;SDS011;7885;42.596;23.044;2022-08-03T15:08:45;3.40;;;1.80;;
15567;SDS011;7885;42.596;23.044;2022-08-03T15:11:13;5.72;;;2.08;;
15567;SDS011;7885;42.596;23.044;2022-08-03T15:13:40;5.97;;;1.95;;
15567;SDS011;7885;42.596;23.044;2022-08-03T15:16:07;4.43;;;1.88;;
15567;SDS011;7885;42.596;23.044;2022-08-03T15:18:34;5.20;;;1.88;;
15567;SDS011;7885;42.596;23.044;2022-08-03T15:21:01;2.35;;;1.67;;
15567;SDS011;7885;42.596;23.044;2022-08-03T15:23:29;3.55;;;2.15;;
15567;SDS011;7885;42.596;23.044;2022-08-03T15:25:56;6.38;;;2.10;;
15567;SDS011;7885;42.596;23.044;2022-08-03T15:28:23;2.10;;;1.92;;
15567;SDS011;7885;42.596;23.044;2022-08-03T15:30:50;2.58;;;1.95;;
15567;SDS011;7885;42.596;23.044;2022-08-03T15:33:17;2.05;;;1.95;;
15567;SDS011;7885;42.596;23.044;2022-08-03T15:35:44;2.03;;;1.83;;
15567;SDS011;7885;42.596;23.044;2022-08-03T15:38:11;4.25;;;2.10;;
15567;SDS011;7885;42.596;23.044;2022-08-03T15:40:39;4.18;;;2.55;;
15567;SDS011;7885;42.596;23.044;2022-08-03T15:43:06;4.07;;;2.22;;
15567;SDS011;7885;42.596;23.044;2022-08-03T15:45:33;3.97;;;2.20;;
15567;SDS011;7885;42.596;23.044;2022-08-03T15:48:00;9.15;;;2.30;;
15567;SDS011;7885;42.596;23.044;2022-08-03T15:50:27;4.00;;;2.22;;
15567;SDS011;7885;42.596;23.044;2022-08-03T15:52:54;2.58;;;2.38;;
15567;SDS011;7885;42.596;23.044;2022-08-03T15:55:21;2.70;;;2.50;;
15567;SDS011;7885;42.596;23.044;2022-08-03T15:57:49;13.82;;;2.50;;
15567;SDS011;7885;42.596;23.044;2022-08-03T16:00:16;2.72;;;2.20;;
15567;SDS011;7885;42.596;23.044;2022-08-03T16:02:43;2.58;;;2.38;;
15567;SDS011;7885;42.596;23.044;2022-08-03T16:05:10;2.65;;;2.45;;
15567;SDS011;7885;42.596;23.044;2022-08-03T16:07:36;2.47;;;2.00;;
15567;SDS011;7885;42.596;23.044;2022-08-03T16:10:11;5.07;;;2.40;;
15567;SDS011;7885;42.596;23.044;2022-08-03T16:12:39;2.20;;;2.10;;
15567;SDS011;7885;42.596;23.044;2022-08-03T16:15:08;3.17;;;1.88;;
15567;SDS011;7885;42.596;23.044;2022-08-03T16:17:36;4.28;;;1.90;;
15567;SDS011;7885;42.596;23.044;2022-08-03T16:20:03;3.90;;;2.03;;